createdAt,value
2023-05-18T00:00:16.265Z,73.56
2023-05-18T00:02:49.865Z,72.35
2023-05-18T00:05:23.160Z,72.57
2023-05-18T00:07:56.440Z,72.47
2023-05-18T00:10:31.122Z,73.01
2023-05-18T00:13:05.423Z,74.94
2023-05-18T00:15:38.654Z,74.52
2023-05-18T00:18:14.057Z,74.06
2023-05-18T00:20:50.638Z,73.60
2023-05-18T00:23:24.987Z,73.69
2023-05-18T00:26:01.454Z,72.89
2023-05-18T00:28:34.741Z,73.07
2023-05-18T00:31:08.103Z,73.01
2023-05-18T00:33:41.732Z,73.39
2023-05-18T00:36:17.309Z,73.14
2023-05-18T00:38:50.511Z,74.01
2023-05-18T00:41:25.317Z,73.81
2023-05-18T00:43:59.218Z,73.74
2023-05-18T00:46:33.077Z,73.58
2023-05-18T00:49:07.783Z,73.28
2023-05-18T00:51:42.353Z,73.70
2023-05-18T00:54:16.665Z,73.50
2023-05-18T00:56:52.374Z,73.66
2023-05-18T00:59:25.850Z,75.25
2023-05-18T01:01:59.405Z,74.34
2023-05-18T01:04:34.149Z,75.81
2023-05-18T01:07:07.648Z,74.99
2023-05-18T01:09:41.070Z,75.95
2023-05-18T01:12:25.078Z,75.76
2023-05-18T01:15:09.150Z,75.11
2023-05-18T01:18:05.533Z,74.81
2023-05-18T01:20:47.588Z,75.33
2023-05-18T01:23:59.899Z,75.61
2023-05-18T01:26:40.463Z,75.49
2023-05-18T01:29:16.546Z,75.46
2023-05-18T01:31:49.737Z,75.06
2023-05-18T01:34:23.309Z,75.17
2023-05-18T01:36:57.379Z,75.08
2023-05-18T01:39:30.732Z,75.46
2023-05-18T01:42:10.898Z,75.12
2023-05-18T01:44:51.797Z,75.57
2023-05-18T01:47:28.059Z,75.30
2023-05-18T01:50:05.191Z,76.06
2023-05-18T01:52:43.985Z,75.59
2023-05-18T01:55:20.536Z,75.13
2023-05-18T01:57:56.927Z,74.64
2023-05-18T02:00:30.305Z,75.20
2023-05-18T02:03:05.023Z,75.06
2023-05-18T02:05:38.352Z,75.14
2023-05-18T02:08:11.696Z,75.10
2023-05-18T02:10:44.945Z,75.44
2023-05-18T02:13:19.487Z,75.50
2023-05-18T02:15:52.792Z,76.54
2023-05-18T02:18:26.917Z,76.67
2023-05-18T02:21:00.642Z,76.41
2023-05-18T02:23:34.135Z,77.00
2023-05-18T02:26:08.021Z,76.26
2023-05-18T02:28:42.661Z,76.24
2023-05-18T02:31:15.982Z,75.22
2023-05-18T02:33:49.239Z,75.00
2023-05-18T02:36:22.698Z,74.41
2023-05-18T02:38:57.293Z,74.95
2023-05-18T02:41:32.710Z,75.02
2023-05-18T02:44:07.473Z,75.77
2023-05-18T02:46:40.629Z,75.22
2023-05-18T02:49:13.802Z,75.59
2023-05-18T02:51:47.884Z,75.17
2023-05-18T02:54:21.274Z,75.95
2023-05-18T02:56:57.067Z,75.93
2023-05-18T02:59:41.182Z,74.99
2023-05-18T03:02:16.321Z,75.46
2023-05-18T03:04:54.074Z,75.49
2023-05-18T03:07:27.774Z,75.16
2023-05-18T03:10:04.673Z,76.32
2023-05-18T03:12:38.935Z,76.23
2023-05-18T03:15:16.342Z,75.86
2023-05-18T03:17:51.889Z,75.33
2023-05-18T03:20:25.403Z,75.91
2023-05-18T03:22:58.905Z,76.22
2023-05-18T03:25:32.925Z,76.14
2023-05-18T03:28:07.985Z,75.78
2023-05-18T03:30:43.782Z,77.13
2023-05-18T03:33:17.215Z,76.16
2023-05-18T03:35:52.529Z,76.78
2023-05-18T03:38:25.854Z,76.22
2023-05-18T03:41:06.255Z,76.08
2023-05-18T03:43:39.648Z,76.12
2023-05-18T03:46:15.270Z,77.31
2023-05-18T03:48:48.622Z,77.86
2023-05-18T03:51:26.885Z,78.16
2023-05-18T03:54:00.166Z,78.56
2023-05-18T03:56:33.434Z,78.14
2023-05-18T03:59:06.707Z,78.29
2023-05-18T04:01:42.363Z,78.56
2023-05-18T04:04:18.323Z,78.09
2023-05-18T04:06:52.560Z,77.83
2023-05-18T04:09:25.708Z,78.06
2023-05-18T04:11:58.939Z,77.62
2023-05-18T04:14:33.108Z,77.33
2023-05-18T04:17:10.234Z,77.38
2023-05-18T04:19:43.409Z,77.16
2023-05-18T04:22:17.121Z,76.78
2023-05-18T04:24:55.037Z,76.33
2023-05-18T04:27:29.588Z,75.86
2023-05-18T04:30:05.705Z,75.00
2023-05-18T04:32:43.257Z,75.13
2023-05-18T04:35:18.620Z,74.89
2023-05-18T04:37:51.851Z,74.19
2023-05-18T04:40:25.426Z,73.97
2023-05-18T04:43:00.797Z,73.23
2023-05-18T04:45:36.227Z,73.26
2023-05-18T04:48:10.962Z,72.36
2023-05-18T04:50:45.555Z,72.32
2023-05-18T04:53:19.156Z,70.82
2023-05-18T04:55:53.304Z,70.07
2023-05-18T04:58:29.827Z,69.78
2023-05-18T05:01:03.716Z,69.10
2023-05-18T05:03:38.600Z,68.59
2023-05-18T05:06:12.760Z,67.27
2023-05-18T05:08:46.060Z,66.56
2023-05-18T05:11:19.291Z,65.60
2023-05-18T05:13:54.003Z,64.23
2023-05-18T05:16:27.221Z,65.54
2023-05-18T05:19:02.173Z,66.16
2023-05-18T05:21:36.200Z,66.19
2023-05-18T05:24:09.959Z,64.52
2023-05-18T05:26:43.122Z,64.12
2023-05-18T05:29:16.315Z,63.23
2023-05-18T05:31:50.115Z,61.72
2023-05-18T05:34:24.809Z,62.48
2023-05-18T05:36:58.152Z,61.71
2023-05-18T05:39:31.820Z,61.15
2023-05-18T05:42:08.580Z,60.42
2023-05-18T05:44:42.068Z,60.78
2023-05-18T05:47:15.750Z,60.95
2023-05-18T05:49:50.757Z,62.43
2023-05-18T05:52:24.032Z,63.55
2023-05-18T05:54:57.828Z,63.22
2023-05-18T05:57:31.494Z,62.05
2023-05-18T06:00:07.062Z,59.42
2023-05-18T06:02:53.916Z,58.43
2023-05-18T06:05:35.352Z,57.93
2023-05-18T06:08:09.932Z,58.31
2023-05-18T06:10:44.346Z,57.76
2023-05-18T06:13:18.469Z,58.14
2023-05-18T06:15:55.234Z,57.53
2023-05-18T06:18:29.953Z,56.55
2023-05-18T06:21:08.651Z,55.28
2023-05-18T06:23:42.179Z,55.25
2023-05-18T06:26:33.691Z,55.22
2023-05-18T06:29:35.919Z,55.39
2023-05-18T06:32:09.513Z,55.72
2023-05-18T06:34:47.357Z,55.34
2023-05-18T06:37:23.111Z,52.66
2023-05-18T06:39:56.398Z,54.45
2023-05-18T06:42:29.616Z,55.09
2023-05-18T06:45:28.726Z,52.39
2023-05-18T06:48:09.781Z,51.50
2023-05-18T06:50:42.981Z,52.89
2023-05-18T06:53:17.672Z,52.37
2023-05-18T06:55:51.624Z,51.63
2023-05-18T06:58:24.840Z,50.77
2023-05-18T07:00:58.328Z,52.13
2023-05-18T07:03:32.653Z,51.25
2023-05-18T07:06:06.267Z,50.66
2023-05-18T07:08:41.212Z,49.90
2023-05-18T07:11:14.867Z,49.72
2023-05-18T07:13:48.115Z,49.65
2023-05-18T07:16:21.585Z,49.31
2023-05-18T07:18:54.916Z,49.57
2023-05-18T07:21:28.199Z,49.34
2023-05-18T07:24:02.735Z,50.22
2023-05-18T07:26:36.138Z,52.88
2023-05-18T07:29:09.348Z,53.86
2023-05-18T07:31:42.566Z,52.21
2023-05-18T07:34:15.929Z,52.11
2023-05-18T07:36:49.118Z,51.82
2023-05-18T07:39:28.770Z,50.61
2023-05-18T07:42:02.651Z,50.45
2023-05-18T07:44:36.038Z,49.23
2023-05-18T07:47:09.361Z,48.43
2023-05-18T07:49:43.185Z,51.18
2023-05-18T07:52:16.346Z,51.82
2023-05-18T07:54:50.953Z,50.74
2023-05-18T07:57:24.556Z,50.74
2023-05-18T07:59:57.874Z,53.10
2023-05-18T08:02:33.529Z,52.67
2023-05-18T08:05:08.531Z,52.02
2023-05-18T08:07:42.577Z,51.64
2023-05-18T08:10:17.190Z,50.95
2023-05-18T08:12:50.765Z,50.67
2023-05-18T08:15:24.036Z,50.87
2023-05-18T08:17:57.326Z,52.67
2023-05-18T08:20:30.736Z,52.41
2023-05-18T08:23:03.996Z,50.50
2023-05-18T08:25:41.103Z,48.94
2023-05-18T08:28:14.297Z,51.30
2023-05-18T08:30:47.440Z,51.90
2023-05-18T08:33:20.608Z,48.08
2023-05-18T08:35:55.237Z,48.46
2023-05-18T08:38:28.382Z,49.75
2023-05-18T08:41:14.006Z,49.91
2023-05-18T08:43:54.374Z,49.34
2023-05-18T08:46:33.451Z,49.87
2023-05-18T08:49:07.530Z,48.69
2023-05-18T08:51:47.154Z,47.26
2023-05-18T08:54:22.612Z,48.57
2023-05-18T08:56:59.753Z,47.20
2023-05-18T08:59:42.924Z,44.89
2023-05-18T09:02:16.570Z,44.51
2023-05-18T09:04:49.970Z,46.25
2023-05-18T09:07:24.268Z,46.32
2023-05-18T09:09:58.881Z,44.85
2023-05-18T09:12:34.390Z,45.23
2023-05-18T09:15:09.452Z,43.76
2023-05-18T09:17:42.982Z,44.04
2023-05-18T09:20:18.454Z,44.64
2023-05-18T09:22:52.349Z,43.49
2023-05-18T09:25:28.314Z,43.51
2023-05-18T09:28:04.090Z,42.01
2023-05-18T09:30:42.503Z,43.76
2023-05-18T09:33:19.319Z,43.55
2023-05-18T09:35:53.563Z,42.83
2023-05-18T09:38:28.134Z,41.96
2023-05-18T09:41:01.751Z,41.58
2023-05-18T09:43:37.462Z,40.30
2023-05-18T09:46:12.014Z,41.30
2023-05-18T09:48:47.966Z,40.47
2023-05-18T09:51:25.064Z,40.13
2023-05-18T09:54:00.036Z,40.09
2023-05-18T09:56:37.692Z,40.93
2023-05-18T09:59:15.004Z,41.47
2023-05-18T10:01:57.755Z,40.22
2023-05-18T10:04:37.188Z,37.52
2023-05-18T10:07:14.586Z,39.57
2023-05-18T10:10:03.468Z,40.77
2023-05-18T10:12:40.934Z,41.04
2023-05-18T10:15:19.825Z,40.64
2023-05-18T10:17:57.985Z,41.05
2023-05-18T10:20:31.623Z,40.70
2023-05-18T10:23:06.829Z,44.14
2023-05-18T10:25:43.666Z,42.62
2023-05-18T10:28:25.947Z,44.05
2023-05-18T10:31:02.688Z,43.20
2023-05-18T10:33:37.882Z,42.48
2023-05-18T10:36:12.024Z,42.52
2023-05-18T10:38:46.201Z,43.62
2023-05-18T10:41:22.650Z,43.75
2023-05-18T10:44:02.366Z,45.81
2023-05-18T10:46:38.385Z,45.31
2023-05-18T10:49:15.000Z,43.29
2023-05-18T10:51:52.552Z,41.44
2023-05-18T10:54:25.751Z,41.38
2023-05-18T10:56:58.955Z,40.88
2023-05-18T10:59:33.240Z,40.60
2023-05-18T11:02:09.455Z,40.28
2023-05-18T11:04:43.723Z,38.00
2023-05-18T11:07:17.429Z,39.25
2023-05-18T11:09:52.106Z,41.91
2023-05-18T11:12:25.410Z,41.71
2023-05-18T11:14:58.570Z,40.71
2023-05-18T11:17:33.204Z,40.86
2023-05-18T11:20:17.896Z,41.06
2023-05-18T11:22:52.447Z,40.64
2023-05-18T11:25:41.770Z,40.55
2023-05-18T11:28:15.567Z,42.12
2023-05-18T11:30:53.031Z,42.86
2023-05-18T11:33:30.315Z,42.54
2023-05-18T11:36:07.464Z,41.84
2023-05-18T11:38:49.821Z,40.84
2023-05-18T11:41:33.697Z,39.64
2023-05-18T11:44:22.037Z,40.06
2023-05-18T11:47:01.251Z,39.42
2023-05-18T11:49:43.605Z,39.17
2023-05-18T11:52:22.248Z,38.87
2023-05-18T11:54:57.184Z,38.39
2023-05-18T11:57:41.534Z,39.21
2023-05-18T12:00:16.368Z,37.79
2023-05-18T12:02:50.439Z,37.12
2023-05-18T12:05:25.627Z,37.31
2023-05-18T12:08:00.053Z,38.32
2023-05-18T12:10:36.756Z,38.16
2023-05-18T12:13:10.605Z,38.82
2023-05-18T12:15:44.833Z,38.72
2023-05-18T12:18:20.251Z,38.26
2023-05-18T12:20:54.927Z,39.49
2023-05-18T12:23:38.095Z,40.08
2023-05-18T12:26:11.335Z,39.43
2023-05-18T12:28:44.528Z,40.92
2023-05-18T12:31:17.844Z,39.88
2023-05-18T12:33:52.231Z,39.56
2023-05-18T12:36:27.401Z,40.98
2023-05-18T12:39:02.634Z,41.04
2023-05-18T12:41:35.912Z,40.27
2023-05-18T12:44:09.195Z,40.02
2023-05-18T12:46:43.929Z,39.69
2023-05-18T12:49:20.360Z,38.14
2023-05-18T12:51:56.980Z,37.28
2023-05-18T12:54:31.569Z,37.06
2023-05-18T12:57:10.087Z,37.23
2023-05-18T12:59:50.243Z,36.25
2023-05-18T13:02:31.201Z,37.61
2023-05-18T13:05:07.480Z,39.13
2023-05-18T13:07:43.641Z,39.89
2023-05-18T13:10:21.166Z,39.90
2023-05-18T13:12:56.347Z,39.16
2023-05-18T13:15:34.770Z,38.34
2023-05-18T13:18:10.845Z,37.76
2023-05-18T13:20:49.648Z,38.45
2023-05-18T13:23:25.821Z,38.61
2023-05-18T13:25:59.197Z,38.44
2023-05-18T13:28:32.318Z,38.04
2023-05-18T13:31:05.747Z,38.09
2023-05-18T13:33:39.027Z,37.92
2023-05-18T13:36:12.495Z,36.63
2023-05-18T13:38:47.028Z,37.17
2023-05-18T13:41:20.230Z,36.45
2023-05-18T13:43:53.443Z,36.75
2023-05-18T13:46:26.701Z,36.74
2023-05-18T13:48:59.919Z,37.40
2023-05-18T13:51:33.087Z,36.53
2023-05-18T13:54:07.894Z,37.40
2023-05-18T13:56:41.152Z,37.98
2023-05-18T13:59:16.330Z,37.68
2023-05-18T14:01:49.691Z,37.85
2023-05-18T14:04:22.984Z,37.99
2023-05-18T14:06:56.191Z,38.77
2023-05-18T14:09:30.810Z,39.87
2023-05-18T14:12:05.324Z,37.91
2023-05-18T14:14:38.603Z,38.63
2023-05-18T14:17:12.750Z,38.42
2023-05-18T14:19:46.184Z,37.37
2023-05-18T14:22:19.367Z,37.85
2023-05-18T14:24:54.795Z,38.69
2023-05-18T14:27:28.071Z,39.74
2023-05-18T14:30:01.375Z,39.16
2023-05-18T14:32:34.700Z,38.34
2023-05-18T14:35:08.623Z,37.66
2023-05-18T14:37:41.823Z,36.48
2023-05-18T14:40:16.437Z,37.23
2023-05-18T14:42:51.468Z,38.60
2023-05-18T14:45:27.090Z,39.16
2023-05-18T14:48:00.347Z,39.35
2023-05-18T14:50:35.622Z,39.14
2023-05-18T14:53:10.656Z,38.80
2023-05-18T14:55:45.353Z,37.44
2023-05-18T14:58:18.514Z,37.21
2023-05-18T15:00:51.807Z,37.95
2023-05-18T15:03:27.354Z,37.56
2023-05-18T15:06:01.616Z,37.56
2023-05-18T15:08:34.803Z,37.86
2023-05-18T15:11:09.345Z,38.00
2023-05-18T15:13:44.905Z,38.90
2023-05-18T15:16:19.804Z,39.57
2023-05-18T15:18:53.136Z,39.35
2023-05-18T15:21:26.419Z,39.93
2023-05-18T15:23:59.584Z,38.55
2023-05-18T15:26:36.919Z,37.68
2023-05-18T15:29:10.114Z,37.97
2023-05-18T15:31:43.357Z,37.94
2023-05-18T15:34:16.582Z,36.75
2023-05-18T15:36:50.071Z,37.06
2023-05-18T15:39:23.205Z,36.38
2023-05-18T15:41:57.748Z,36.59
2023-05-18T15:44:31.015Z,38.74
2023-05-18T15:47:05.985Z,37.50
2023-05-18T15:49:39.256Z,36.20
2023-05-18T15:52:12.507Z,37.52
2023-05-18T15:54:46.213Z,38.55
2023-05-18T15:57:22.242Z,37.69
2023-05-18T15:59:55.436Z,38.16
2023-05-18T16:02:28.791Z,37.20
2023-05-18T16:05:01.983Z,38.17
2023-05-18T16:07:35.521Z,38.24
2023-05-18T16:10:09.577Z,38.63
2023-05-18T16:12:44.132Z,38.94
2023-05-18T16:15:19.064Z,37.85
2023-05-18T16:17:52.432Z,38.00
2023-05-18T16:20:26.124Z,37.10
2023-05-18T16:23:00.056Z,37.63
2023-05-18T16:25:33.628Z,38.71
2023-05-18T16:28:08.159Z,38.30
2023-05-18T16:30:41.332Z,38.17
2023-05-18T16:33:14.545Z,38.65
2023-05-18T16:35:47.976Z,38.79
2023-05-18T16:38:21.226Z,38.58
2023-05-18T16:40:54.437Z,38.36
2023-05-18T16:43:29.075Z,39.19
2023-05-18T16:46:02.601Z,38.82
2023-05-18T16:48:35.871Z,39.73
2023-05-18T16:51:09.649Z,39.56
2023-05-18T16:53:43.807Z,39.94
2023-05-18T16:56:17.074Z,40.20
2023-05-18T16:58:52.488Z,40.84
2023-05-18T17:01:28.474Z,40.20
2023-05-18T17:04:02.529Z,40.25
2023-05-18T17:06:36.226Z,40.33
2023-05-18T17:09:09.561Z,40.31
2023-05-18T17:11:42.794Z,40.24
2023-05-18T17:14:18.549Z,40.27
2023-05-18T17:16:52.837Z,40.29
2023-05-18T17:19:26.182Z,39.52
2023-05-18T17:21:59.456Z,40.23
2023-05-18T17:24:32.973Z,40.35
2023-05-18T17:27:06.784Z,41.47
2023-05-18T17:29:41.789Z,41.62
2023-05-18T17:32:14.924Z,41.42
2023-05-18T17:34:48.192Z,41.45
2023-05-18T17:37:21.752Z,41.28
2023-05-18T17:39:55.152Z,42.32
2023-05-18T17:42:28.362Z,42.52
2023-05-18T17:45:03.008Z,42.67
2023-05-18T17:47:36.274Z,42.66
2023-05-18T17:50:10.145Z,41.75
2023-05-18T17:52:43.397Z,42.63
2023-05-18T17:55:16.842Z,42.01
2023-05-18T17:57:50.108Z,43.21
2023-05-18T18:00:24.815Z,43.43
2023-05-18T18:02:58.374Z,43.98
2023-05-18T18:05:33.974Z,44.08
2023-05-18T18:08:08.101Z,44.29
2023-05-18T18:10:41.247Z,45.05
2023-05-18T18:13:14.501Z,44.98
2023-05-18T18:15:49.081Z,45.15
2023-05-18T18:18:23.428Z,45.50
2023-05-18T18:20:56.577Z,46.01
2023-05-18T18:23:29.858Z,45.80
2023-05-18T18:26:03.993Z,46.04
2023-05-18T18:28:37.173Z,46.15
2023-05-18T18:31:11.836Z,46.78
2023-05-18T18:33:50.014Z,46.85
2023-05-18T18:36:24.955Z,46.77
2023-05-18T18:38:59.478Z,47.18
2023-05-18T18:41:32.809Z,47.33
2023-05-18T18:44:06.466Z,47.47
2023-05-18T18:46:41.109Z,48.05
2023-05-18T18:49:14.836Z,48.44
2023-05-18T18:51:48.302Z,48.91
2023-05-18T18:54:23.518Z,49.11
2023-05-18T18:56:56.803Z,49.87
2023-05-18T18:59:29.996Z,49.62
2023-05-18T19:02:04.749Z,49.96
2023-05-18T19:04:37.975Z,50.42
2023-05-18T19:07:11.415Z,50.99
2023-05-18T19:09:44.638Z,50.73
2023-05-18T19:12:17.857Z,51.31
2023-05-18T19:14:51.107Z,50.27
2023-05-18T19:17:26.797Z,51.18
2023-05-18T19:20:00.224Z,51.24
2023-05-18T19:22:33.569Z,51.48
2023-05-18T19:25:07.506Z,51.49
2023-05-18T19:27:41.100Z,51.84
2023-05-18T19:30:16.592Z,52.40
2023-05-18T19:32:52.884Z,52.10
2023-05-18T19:35:26.260Z,52.60
2023-05-18T19:38:00.488Z,52.68
2023-05-18T19:40:33.636Z,52.90
2023-05-18T19:43:06.880Z,52.67
2023-05-18T19:45:40.301Z,52.95
2023-05-18T19:48:15.094Z,52.61
2023-05-18T19:50:48.538Z,53.14
2023-05-18T19:53:23.005Z,53.47
2023-05-18T19:55:56.383Z,53.52
2023-05-18T19:58:29.625Z,54.09
2023-05-18T20:01:03.040Z,54.15
2023-05-18T20:03:41.504Z,53.97
2023-05-18T20:06:16.345Z,54.37
2023-05-18T20:08:49.675Z,54.56
2023-05-18T20:11:22.819Z,54.84
2023-05-18T20:13:56.058Z,55.94
2023-05-18T20:16:29.463Z,55.06
2023-05-18T20:19:04.610Z,55.38
2023-05-18T20:21:37.876Z,55.69
2023-05-18T20:24:11.131Z,55.78
2023-05-18T20:26:44.365Z,56.33
2023-05-18T20:29:17.518Z,56.00
2023-05-18T20:31:50.944Z,56.16
2023-05-18T20:34:25.756Z,56.03
2023-05-18T20:36:59.040Z,57.23
2023-05-18T20:39:32.189Z,56.06
2023-05-18T20:42:05.941Z,57.00
2023-05-18T20:44:39.334Z,56.84
2023-05-18T20:47:12.504Z,56.93
2023-05-18T20:49:47.243Z,57.29
2023-05-18T20:52:20.356Z,57.48
2023-05-18T20:54:53.543Z,58.25
2023-05-18T20:57:27.851Z,57.59
2023-05-18T21:00:01.021Z,57.78
2023-05-18T21:02:34.302Z,58.05
2023-05-18T21:05:09.817Z,58.21
2023-05-18T21:07:43.862Z,58.93
2023-05-18T21:10:17.293Z,58.70
2023-05-18T21:12:50.692Z,59.19
2023-05-18T21:15:23.885Z,59.22
2023-05-18T21:17:57.038Z,59.09
2023-05-18T21:20:32.039Z,59.25
2023-05-18T21:23:05.765Z,59.26
2023-05-18T21:25:38.985Z,59.45
2023-05-18T21:28:12.165Z,59.66
2023-05-18T21:30:45.720Z,59.93
2023-05-18T21:33:18.963Z,59.85
2023-05-18T21:35:55.920Z,59.85
2023-05-18T21:38:29.213Z,60.02
2023-05-18T21:41:02.371Z,60.88
2023-05-18T21:43:35.781Z,60.78
2023-05-18T21:46:09.581Z,60.02
2023-05-18T21:48:42.819Z,60.09
2023-05-18T21:51:17.469Z,60.08
2023-05-18T21:53:50.906Z,60.36
2023-05-18T21:56:24.420Z,60.80
2023-05-18T21:58:58.044Z,60.76
2023-05-18T22:01:31.303Z,60.76
2023-05-18T22:04:04.763Z,61.36
2023-05-18T22:06:39.401Z,60.95
2023-05-18T22:09:12.576Z,61.37
2023-05-18T22:11:45.814Z,61.95
2023-05-18T22:14:18.992Z,62.22
2023-05-18T22:16:52.253Z,63.66
2023-05-18T22:19:25.680Z,63.77
2023-05-18T22:22:01.504Z,63.29
2023-05-18T22:24:34.684Z,63.83
2023-05-18T22:27:07.917Z,62.72
2023-05-18T22:29:41.146Z,64.31
2023-05-18T22:32:15.730Z,64.23
2023-05-18T22:34:48.925Z,63.64
2023-05-18T22:37:23.425Z,63.71
2023-05-18T22:39:56.757Z,64.82
2023-05-18T22:42:29.893Z,65.44
2023-05-18T22:45:03.415Z,64.58
2023-05-18T22:47:38.232Z,64.37
2023-05-18T22:50:11.678Z,65.89
2023-05-18T22:52:46.364Z,64.72
2023-05-18T22:55:19.954Z,65.74
2023-05-18T22:57:53.139Z,66.27
2023-05-18T23:00:27.320Z,66.22
2023-05-18T23:03:00.748Z,66.74
2023-05-18T23:05:36.240Z,66.90
2023-05-18T23:08:10.944Z,66.23
2023-05-18T23:10:44.531Z,66.55
2023-05-18T23:13:19.673Z,67.02
2023-05-18T23:15:56.139Z,67.64
2023-05-18T23:18:29.566Z,68.74
2023-05-18T23:21:02.841Z,68.31
2023-05-18T23:23:37.408Z,68.16
2023-05-18T23:26:10.885Z,68.19
2023-05-18T23:28:44.178Z,68.14
2023-05-18T23:31:17.545Z,69.04
2023-05-18T23:33:51.576Z,69.21
2023-05-18T23:36:30.410Z,69.89
2023-05-18T23:39:05.967Z,70.90
2023-05-18T23:41:40.339Z,70.89
2023-05-18T23:44:14.173Z,71.82
2023-05-18T23:46:47.998Z,71.47
2023-05-18T23:49:21.623Z,72.23
2023-05-18T23:51:55.604Z,70.94
2023-05-18T23:54:31.121Z,70.57
2023-05-18T23:57:04.875Z,70.78
2023-05-18T23:59:38.898Z,70.80
